sensor_id;sensor_type;location;lat;lon;timestamp;P1;durP1;ratioP1;P2;durP2;ratioP2
33593;SDS011;19920;52.242;20.940;2023-02-15T00:01:15;50.97;;;28.52;;
33593;SDS011;19920;52.242;20.940;2023-02-15T00:03:41;46.85;;;28.25;;
33593;SDS011;19920;52.242;20.940;2023-02-15T00:06:06;47.83;;;27.88;;
33593;SDS011;19920;52.242;20.940;2023-02-15T00:08:32;49.75;;;29.35;;
33593;SDS011;19920;52.242;20.940;2023-02-15T00:11:07;48.70;;;27.80;;
33593;SDS011;19920;52.242;20.940;2023-02-15T00:13:38;53.78;;;28.98;;
33593;SDS011;19920;52.242;20.940;2023-02-15T00:16:08;53.20;;;29.35;;
33593;SDS011;19920;52.242;20.940;2023-02-15T00:18:35;49.45;;;28.25;;
33593;SDS011;19920;52.242;20.940;2023-02-15T00:21:08;53.63;;;29.55;;
33593;SDS011;19920;52.242;20.940;2023-02-15T00:23:34;52.45;;;29.92;;
33593;SDS011;19920;52.242;20.940;2023-02-15T00:26:07;51.25;;;28.52;;
33593;SDS011;19920;52.242;20.940;2023-02-15T00:28:37;52.08;;;28.50;;
33593;SDS011;19920;52.242;20.940;2023-02-15T00:31:06;60.03;;;30.55;;
33593;SDS011;19920;52.242;20.940;2023-02-15T00:33:36;49.78;;;27.80;;
33593;SDS011;19920;52.242;20.940;2023-02-15T00:36:04;49.88;;;29.50;;
33593;SDS011;19920;52.242;20.940;2023-02-15T00:38:31;50.50;;;29.30;;
33593;SDS011;19920;52.242;20.940;2023-02-15T00:40:57;51.20;;;29.08;;
33593;SDS011;19920;52.242;20.940;2023-02-15T00:43:25;50.65;;;29.05;;
33593;SDS011;19920;52.242;20.940;2023-02-15T00:45:51;53.50;;;29.52;;
33593;SDS011;19920;52.242;20.940;2023-02-15T00:48:17;53.58;;;29.15;;
33593;SDS011;19920;52.242;20.940;2023-02-15T00:50:48;49.10;;;27.52;;
33593;SDS011;19920;52.242;20.940;2023-02-15T00:53:15;52.30;;;30.20;;
33593;SDS011;19920;52.242;20.940;2023-02-15T00:55:41;53.72;;;30.42;;
33593;SDS011;19920;52.242;20.940;2023-02-15T00:58:07;52.72;;;29.05;;
33593;SDS011;19920;52.242;20.940;2023-02-15T01:00:34;50.05;;;28.08;;
33593;SDS011;19920;52.242;20.940;2023-02-15T01:03:00;51.80;;;28.42;;
33593;SDS011;19920;52.242;20.940;2023-02-15T01:05:26;54.30;;;31.05;;
33593;SDS011;19920;52.242;20.940;2023-02-15T01:07:51;49.35;;;28.15;;
33593;SDS011;19920;52.242;20.940;2023-02-15T01:10:17;52.75;;;29.73;;
33593;SDS011;19920;52.242;20.940;2023-02-15T01:12:43;57.95;;;30.33;;
33593;SDS011;19920;52.242;20.940;2023-02-15T01:15:09;57.40;;;30.52;;
33593;SDS011;19920;52.242;20.940;2023-02-15T01:17:34;52.55;;;29.70;;
33593;SDS011;19920;52.242;20.940;2023-02-15T01:20:00;51.50;;;30.38;;
33593;SDS011;19920;52.242;20.940;2023-02-15T01:22:26;52.10;;;29.35;;
33593;SDS011;19920;52.242;20.940;2023-02-15T01:24:51;55.00;;;31.75;;
33593;SDS011;19920;52.242;20.940;2023-02-15T01:27:17;54.63;;;30.88;;
33593;SDS011;19920;52.242;20.940;2023-02-15T01:29:43;55.30;;;30.23;;
33593;SDS011;19920;52.242;20.940;2023-02-15T01:32:09;57.38;;;30.80;;
33593;SDS011;19920;52.242;20.940;2023-02-15T01:34:34;57.72;;;31.85;;
33593;SDS011;19920;52.242;20.940;2023-02-15T01:37:00;60.10;;;30.40;;
33593;SDS011;19920;52.242;20.940;2023-02-15T01:39:26;57.08;;;32.00;;
33593;SDS011;19920;52.242;20.940;2023-02-15T01:41:51;60.72;;;31.58;;
33593;SDS011;19920;52.242;20.940;2023-02-15T01:47:07;55.22;;;30.25;;
33593;SDS011;19920;52.242;20.940;2023-02-15T01:49:37;57.90;;;30.63;;
33593;SDS011;19920;52.242;20.940;2023-02-15T01:52:06;52.22;;;29.08;;
33593;SDS011;19920;52.242;20.940;2023-02-15T01:54:33;55.15;;;30.63;;
33593;SDS011;19920;52.242;20.940;2023-02-15T01:57:02;57.88;;;31.05;;
33593;SDS011;19920;52.242;20.940;2023-02-15T01:59:40;54.38;;;30.70;;
33593;SDS011;19920;52.242;20.940;2023-02-15T02:02:11;56.65;;;29.98;;
33593;SDS011;19920;52.242;20.940;2023-02-15T02:04:43;56.97;;;29.45;;
33593;SDS011;19920;52.242;20.940;2023-02-15T02:07:14;56.83;;;29.08;;
33593;SDS011;19920;52.242;20.940;2023-02-15T02:09:42;53.65;;;30.13;;
33593;SDS011;19920;52.242;20.940;2023-02-15T02:12:09;56.55;;;29.77;;
33593;SDS011;19920;52.242;20.940;2023-02-15T02:14:35;54.92;;;29.73;;
33593;SDS011;19920;52.242;20.940;2023-02-15T02:22:40;50.72;;;28.92;;
33593;SDS011;19920;52.242;20.940;2023-02-15T02:25:47;53.25;;;29.65;;
33593;SDS011;19920;52.242;20.940;2023-02-15T02:29:01;51.30;;;28.40;;
33593;SDS011;19920;52.242;20.940;2023-02-15T02:34:50;49.47;;;25.70;;
33593;SDS011;19920;52.242;20.940;2023-02-15T02:40:10;51.10;;;27.17;;
33593;SDS011;19920;52.242;20.940;2023-02-15T02:42:46;48.47;;;26.77;;
33593;SDS011;19920;52.242;20.940;2023-02-15T02:48:08;51.17;;;26.70;;
33593;SDS011;19920;52.242;20.940;2023-02-15T02:50:40;46.83;;;26.23;;
33593;SDS011;19920;52.242;20.940;2023-02-15T02:53:06;47.80;;;26.40;;
33593;SDS011;19920;52.242;20.940;2023-02-15T02:55:36;46.92;;;26.95;;
33593;SDS011;19920;52.242;20.940;2023-02-15T03:00:46;49.58;;;26.65;;
33593;SDS011;19920;52.242;20.940;2023-02-15T03:05:47;48.70;;;27.25;;
33593;SDS011;19920;52.242;20.940;2023-02-15T03:08:18;48.45;;;26.02;;
33593;SDS011;19920;52.242;20.940;2023-02-15T03:10:47;46.28;;;26.60;;
33593;SDS011;19920;52.242;20.940;2023-02-15T03:13:17;49.88;;;26.42;;
33593;SDS011;19920;52.242;20.940;2023-02-15T03:15:43;49.17;;;28.00;;
33593;SDS011;19920;52.242;20.940;2023-02-15T03:18:30;50.13;;;27.67;;
33593;SDS011;19920;52.242;20.940;2023-02-15T03:21:04;47.38;;;26.25;;
33593;SDS011;19920;52.242;20.940;2023-02-15T03:23:32;47.28;;;25.35;;
33593;SDS011;19920;52.242;20.940;2023-02-15T03:26:05;47.67;;;26.70;;
33593;SDS011;19920;52.242;20.940;2023-02-15T03:28:38;43.58;;;25.38;;
33593;SDS011;19920;52.242;20.940;2023-02-15T03:31:08;47.60;;;26.25;;
33593;SDS011;19920;52.242;20.940;2023-02-15T03:33:38;44.47;;;25.63;;
33593;SDS011;19920;52.242;20.940;2023-02-15T03:39:10;46.50;;;25.63;;
33593;SDS011;19920;52.242;20.940;2023-02-15T03:42:00;48.70;;;25.95;;
33593;SDS011;19920;52.242;20.940;2023-02-15T03:44:35;45.90;;;25.50;;
33593;SDS011;19920;52.242;20.940;2023-02-15T03:47:11;47.72;;;25.35;;
33593;SDS011;19920;52.242;20.940;2023-02-15T03:49:42;42.60;;;24.52;;
33593;SDS011;19920;52.242;20.940;2023-02-15T03:52:10;48.27;;;25.23;;
33593;SDS011;19920;52.242;20.940;2023-02-15T03:54:37;44.17;;;25.58;;
33593;SDS011;19920;52.242;20.940;2023-02-15T03:57:16;43.85;;;25.20;;
33593;SDS011;19920;52.242;20.940;2023-02-15T04:00:02;43.60;;;23.05;;
33593;SDS011;19920;52.242;20.940;2023-02-15T04:05:34;39.85;;;21.85;;
33593;SDS011;19920;52.242;20.940;2023-02-15T04:08:00;41.40;;;22.83;;
33593;SDS011;19920;52.242;20.940;2023-02-15T04:10:26;38.35;;;22.42;;
33593;SDS011;19920;52.242;20.940;2023-02-15T04:13:10;39.00;;;22.27;;
33593;SDS011;19920;52.242;20.940;2023-02-15T04:15:35;31.45;;;20.40;;
33593;SDS011;19920;52.242;20.940;2023-02-15T04:18:20;34.20;;;20.75;;
33593;SDS011;19920;52.242;20.940;2023-02-15T04:20:45;34.78;;;21.45;;
33593;SDS011;19920;52.242;20.940;2023-02-15T04:23:30;37.20;;;21.90;;
33593;SDS011;19920;52.242;20.940;2023-02-15T04:26:15;34.65;;;19.83;;
33593;SDS011;19920;52.242;20.940;2023-02-15T04:28:41;37.25;;;21.30;;
33593;SDS011;19920;52.242;20.940;2023-02-15T04:31:06;31.92;;;18.95;;
33593;SDS011;19920;52.242;20.940;2023-02-15T04:33:32;37.25;;;20.00;;
33593;SDS011;19920;52.242;20.940;2023-02-15T04:35:58;32.22;;;19.63;;
33593;SDS011;19920;52.242;20.940;2023-02-15T04:38:23;34.63;;;21.25;;
33593;SDS011;19920;52.242;20.940;2023-02-15T04:40:49;34.22;;;19.25;;
33593;SDS011;19920;52.242;20.940;2023-02-15T04:43:17;34.78;;;20.15;;
33593;SDS011;19920;52.242;20.940;2023-02-15T04:45:52;36.72;;;20.20;;
33593;SDS011;19920;52.242;20.940;2023-02-15T04:48:18;32.65;;;19.60;;
33593;SDS011;19920;52.242;20.940;2023-02-15T04:50:44;34.08;;;20.83;;
33593;SDS011;19920;52.242;20.940;2023-02-15T04:53:10;36.85;;;20.75;;
33593;SDS011;19920;52.242;20.940;2023-02-15T04:55:35;32.50;;;19.95;;
33593;SDS011;19920;52.242;20.940;2023-02-15T04:58:01;31.25;;;18.15;;
33593;SDS011;19920;52.242;20.940;2023-02-15T05:00:27;34.17;;;20.92;;
33593;SDS011;19920;52.242;20.940;2023-02-15T05:02:52;35.35;;;19.95;;
33593;SDS011;19920;52.242;20.940;2023-02-15T05:05:18;36.67;;;20.00;;
33593;SDS011;19920;52.242;20.940;2023-02-15T05:07:44;36.10;;;21.05;;
33593;SDS011;19920;52.242;20.940;2023-02-15T05:10:10;37.60;;;21.67;;
33593;SDS011;19920;52.242;20.940;2023-02-15T05:12:35;38.08;;;20.45;;
33593;SDS011;19920;52.242;20.940;2023-02-15T05:15:01;38.58;;;21.27;;
33593;SDS011;19920;52.242;20.940;2023-02-15T05:17:27;34.90;;;20.67;;
33593;SDS011;19920;52.242;20.940;2023-02-15T05:19:53;37.90;;;21.65;;
33593;SDS011;19920;52.242;20.940;2023-02-15T05:22:18;31.52;;;18.25;;
33593;SDS011;19920;52.242;20.940;2023-02-15T05:24:44;40.90;;;21.35;;
33593;SDS011;19920;52.242;20.940;2023-02-15T05:27:28;33.38;;;20.20;;
33593;SDS011;19920;52.242;20.940;2023-02-15T05:30:12;32.63;;;19.52;;
33593;SDS011;19920;52.242;20.940;2023-02-15T05:32:38;39.78;;;21.13;;
33593;SDS011;19920;52.242;20.940;2023-02-15T05:35:05;37.65;;;20.98;;
33593;SDS011;19920;52.242;20.940;2023-02-15T05:37:31;40.30;;;21.98;;
33593;SDS011;19920;52.242;20.940;2023-02-15T05:39:56;35.70;;;20.67;;
33593;SDS011;19920;52.242;20.940;2023-02-15T05:42:23;35.10;;;20.58;;
33593;SDS011;19920;52.242;20.940;2023-02-15T05:44:49;33.45;;;19.50;;
33593;SDS011;19920;52.242;20.940;2023-02-15T05:47:14;36.03;;;20.63;;
33593;SDS011;19920;52.242;20.940;2023-02-15T05:49:40;35.13;;;19.95;;
33593;SDS011;19920;52.242;20.940;2023-02-15T05:52:05;34.13;;;18.58;;
33593;SDS011;19920;52.242;20.940;2023-02-15T05:54:31;31.35;;;18.10;;
33593;SDS011;19920;52.242;20.940;2023-02-15T05:56:57;27.55;;;16.38;;
33593;SDS011;19920;52.242;20.940;2023-02-15T05:59:22;34.80;;;18.77;;
33593;SDS011;19920;52.242;20.940;2023-02-15T06:01:48;33.38;;;17.40;;
33593;SDS011;19920;52.242;20.940;2023-02-15T06:04:14;30.10;;;17.45;;
33593;SDS011;19920;52.242;20.940;2023-02-15T06:06:39;32.42;;;19.10;;
33593;SDS011;19920;52.242;20.940;2023-02-15T06:09:05;32.15;;;18.98;;
33593;SDS011;19920;52.242;20.940;2023-02-15T06:11:31;31.92;;;18.30;;
33593;SDS011;19920;52.242;20.940;2023-02-15T06:13:56;33.58;;;19.38;;
33593;SDS011;19920;52.242;20.940;2023-02-15T06:16:22;31.98;;;18.88;;
33593;SDS011;19920;52.242;20.940;2023-02-15T06:18:47;37.72;;;20.17;;
33593;SDS011;19920;52.242;20.940;2023-02-15T06:21:13;36.40;;;21.27;;
33593;SDS011;19920;52.242;20.940;2023-02-15T06:23:39;37.55;;;21.83;;
33593;SDS011;19920;52.242;20.940;2023-02-15T06:26:04;34.80;;;19.95;;
33593;SDS011;19920;52.242;20.940;2023-02-15T06:28:30;34.90;;;19.17;;
33593;SDS011;19920;52.242;20.940;2023-02-15T06:30:56;27.38;;;16.73;;
33593;SDS011;19920;52.242;20.940;2023-02-15T06:33:22;27.55;;;16.10;;
33593;SDS011;19920;52.242;20.940;2023-02-15T06:35:47;31.00;;;17.35;;
33593;SDS011;19920;52.242;20.940;2023-02-15T06:38:13;35.70;;;19.17;;
33593;SDS011;19920;52.242;20.940;2023-02-15T06:40:38;29.60;;;17.55;;
33593;SDS011;19920;52.242;20.940;2023-02-15T06:43:04;30.67;;;17.20;;
33593;SDS011;19920;52.242;20.940;2023-02-15T06:45:30;28.27;;;16.60;;
33593;SDS011;19920;52.242;20.940;2023-02-15T06:47:55;33.60;;;17.98;;
33593;SDS011;19920;52.242;20.940;2023-02-15T06:50:21;32.17;;;18.08;;
33593;SDS011;19920;52.242;20.940;2023-02-15T06:52:47;38.13;;;19.80;;
33593;SDS011;19920;52.242;20.940;2023-02-15T06:55:12;31.25;;;18.70;;
33593;SDS011;19920;52.242;20.940;2023-02-15T06:57:38;34.92;;;18.25;;
33593;SDS011;19920;52.242;20.940;2023-02-15T07:00:04;32.58;;;18.40;;
33593;SDS011;19920;52.242;20.940;2023-02-15T07:02:31;29.92;;;18.48;;
33593;SDS011;19920;52.242;20.940;2023-02-15T07:04:58;34.75;;;20.35;;
33593;SDS011;19920;52.242;20.940;2023-02-15T07:07:23;33.50;;;20.08;;
33593;SDS011;19920;52.242;20.940;2023-02-15T07:09:49;40.50;;;21.83;;
33593;SDS011;19920;52.242;20.940;2023-02-15T07:12:15;33.45;;;18.98;;
33593;SDS011;19920;52.242;20.940;2023-02-15T07:14:59;34.40;;;18.95;;
33593;SDS011;19920;52.242;20.940;2023-02-15T07:17:25;29.05;;;16.88;;
33593;SDS011;19920;52.242;20.940;2023-02-15T07:19:53;32.67;;;17.75;;
33593;SDS011;19920;52.242;20.940;2023-02-15T07:22:19;30.40;;;17.88;;
33593;SDS011;19920;52.242;20.940;2023-02-15T07:24:45;29.50;;;17.15;;
33593;SDS011;19920;52.242;20.940;2023-02-15T07:27:10;29.23;;;15.43;;
33593;SDS011;19920;52.242;20.940;2023-02-15T07:29:36;31.42;;;18.65;;
33593;SDS011;19920;52.242;20.940;2023-02-15T07:32:01;35.17;;;19.65;;
33593;SDS011;19920;52.242;20.940;2023-02-15T07:34:27;32.83;;;19.30;;
33593;SDS011;19920;52.242;20.940;2023-02-15T07:36:53;37.40;;;20.63;;
33593;SDS011;19920;52.242;20.940;2023-02-15T07:39:18;35.58;;;19.35;;
33593;SDS011;19920;52.242;20.940;2023-02-15T07:41:45;35.22;;;19.85;;
33593;SDS011;19920;52.242;20.940;2023-02-15T07:44:12;34.13;;;20.30;;
33593;SDS011;19920;52.242;20.940;2023-02-15T07:46:38;34.45;;;20.02;;
33593;SDS011;19920;52.242;20.940;2023-02-15T07:49:04;35.85;;;19.58;;
33593;SDS011;19920;52.242;20.940;2023-02-15T07:51:30;33.28;;;19.50;;
33593;SDS011;19920;52.242;20.940;2023-02-15T07:53:55;34.97;;;19.20;;
33593;SDS011;19920;52.242;20.940;2023-02-15T07:56:21;39.10;;;21.20;;
33593;SDS011;19920;52.242;20.940;2023-02-15T07:58:47;41.33;;;21.80;;
33593;SDS011;19920;52.242;20.940;2023-02-15T08:01:16;42.78;;;22.83;;
33593;SDS011;19920;52.242;20.940;2023-02-15T08:03:47;41.33;;;21.88;;
33593;SDS011;19920;52.242;20.940;2023-02-15T08:06:13;36.90;;;21.63;;
33593;SDS011;19920;52.242;20.940;2023-02-15T08:08:39;37.90;;;22.38;;
33593;SDS011;19920;52.242;20.940;2023-02-15T08:16:36;49.85;;;24.35;;
33593;SDS011;19920;52.242;20.940;2023-02-15T08:19:06;41.42;;;23.42;;
33593;SDS011;19920;52.242;20.940;2023-02-15T08:21:32;41.55;;;22.48;;
33593;SDS011;19920;52.242;20.940;2023-02-15T08:23:58;45.50;;;23.65;;
33593;SDS011;19920;52.242;20.940;2023-02-15T08:26:25;47.65;;;23.88;;
33593;SDS011;19920;52.242;20.940;2023-02-15T08:28:52;40.75;;;21.85;;
33593;SDS011;19920;52.242;20.940;2023-02-15T08:31:18;42.63;;;23.45;;
33593;SDS011;19920;52.242;20.940;2023-02-15T08:33:44;53.13;;;23.80;;
33593;SDS011;19920;52.242;20.940;2023-02-15T08:36:12;48.20;;;23.85;;
33593;SDS011;19920;52.242;20.940;2023-02-15T08:38:40;44.65;;;22.80;;
33593;SDS011;19920;52.242;20.940;2023-02-15T08:41:10;43.13;;;23.05;;
33593;SDS011;19920;52.242;20.940;2023-02-15T08:43:39;41.97;;;21.65;;
33593;SDS011;19920;52.242;20.940;2023-02-15T08:46:06;40.63;;;22.20;;
33593;SDS011;19920;52.242;20.940;2023-02-15T08:48:32;40.03;;;21.75;;
33593;SDS011;19920;52.242;20.940;2023-02-15T08:50:58;37.80;;;20.40;;
33593;SDS011;19920;52.242;20.940;2023-02-15T08:53:23;41.08;;;20.83;;
33593;SDS011;19920;52.242;20.940;2023-02-15T08:55:58;39.90;;;20.35;;
33593;SDS011;19920;52.242;20.940;2023-02-15T08:58:24;35.30;;;19.63;;
33593;SDS011;19920;52.242;20.940;2023-02-15T09:00:50;32.55;;;17.15;;
33593;SDS011;19920;52.242;20.940;2023-02-15T09:03:16;31.15;;;17.73;;
33593;SDS011;19920;52.242;20.940;2023-02-15T09:05:42;29.40;;;16.92;;
33593;SDS011;19920;52.242;20.940;2023-02-15T09:08:08;27.95;;;16.23;;
33593;SDS011;19920;52.242;20.940;2023-02-15T09:10:33;28.63;;;16.05;;
33593;SDS011;19920;52.242;20.940;2023-02-15T09:12:59;27.58;;;15.73;;
33593;SDS011;19920;52.242;20.940;2023-02-15T09:15:25;28.52;;;16.13;;
33593;SDS011;19920;52.242;20.940;2023-02-15T09:17:50;29.60;;;15.02;;
33593;SDS011;19920;52.242;20.940;2023-02-15T09:20:16;27.35;;;15.35;;
33593;SDS011;19920;52.242;20.940;2023-02-15T09:22:42;26.67;;;15.30;;
33593;SDS011;19920;52.242;20.940;2023-02-15T09:25:08;26.38;;;14.90;;
33593;SDS011;19920;52.242;20.940;2023-02-15T09:27:33;26.55;;;13.88;;
33593;SDS011;19920;52.242;20.940;2023-02-15T09:29:59;22.00;;;12.95;;
33593;SDS011;19920;52.242;20.940;2023-02-15T09:32:25;26.42;;;14.65;;
33593;SDS011;19920;52.242;20.940;2023-02-15T09:34:50;25.80;;;14.85;;
33593;SDS011;19920;52.242;20.940;2023-02-15T09:37:16;27.17;;;15.68;;
33593;SDS011;19920;52.242;20.940;2023-02-15T09:39:42;30.83;;;16.38;;
33593;SDS011;19920;52.242;20.940;2023-02-15T09:48:07;30.05;;;16.77;;
33593;SDS011;19920;52.242;20.940;2023-02-15T09:51:20;26.95;;;16.08;;
33593;SDS011;19920;52.242;20.940;2023-02-15T09:54:04;28.63;;;15.80;;
33593;SDS011;19920;52.242;20.940;2023-02-15T09:56:41;29.25;;;15.43;;
33593;SDS011;19920;52.242;20.940;2023-02-15T09:59:48;33.13;;;16.92;;
33593;SDS011;19920;52.242;20.940;2023-02-15T10:13:19;32.88;;;17.67;;
33593;SDS011;19920;52.242;20.940;2023-02-15T10:26:58;40.78;;;19.00;;
33593;SDS011;19920;52.242;20.940;2023-02-15T10:29:36;30.80;;;17.50;;
33593;SDS011;19920;52.242;20.940;2023-02-15T10:32:11;30.52;;;16.90;;
33593;SDS011;19920;52.242;20.940;2023-02-15T10:37:42;34.20;;;16.40;;
33593;SDS011;19920;52.242;20.940;2023-02-15T10:40:27;33.20;;;16.77;;
33593;SDS011;19920;52.242;20.940;2023-02-15T10:43:14;33.45;;;16.85;;
33593;SDS011;19920;52.242;20.940;2023-02-15T10:51:27;27.88;;;15.20;;
33593;SDS011;19920;52.242;20.940;2023-02-15T11:00:04;22.42;;;13.15;;
33593;SDS011;19920;52.242;20.940;2023-02-15T11:03:05;28.83;;;14.43;;
33593;SDS011;19920;52.242;20.940;2023-02-15T11:05:56;26.98;;;14.70;;
33593;SDS011;19920;52.242;20.940;2023-02-15T11:08:34;27.33;;;15.27;;
33593;SDS011;19920;52.242;20.940;2023-02-15T11:11:05;26.88;;;14.82;;
33593;SDS011;19920;52.242;20.940;2023-02-15T11:16:18;24.95;;;13.82;;
33593;SDS011;19920;52.242;20.940;2023-02-15T11:19:03;27.27;;;15.43;;
33593;SDS011;19920;52.242;20.940;2023-02-15T11:21:40;29.85;;;16.27;;
33593;SDS011;19920;52.242;20.940;2023-02-15T11:24:11;30.63;;;16.98;;
33593;SDS011;19920;52.242;20.940;2023-02-15T11:26:43;38.92;;;19.38;;
33593;SDS011;19920;52.242;20.940;2023-02-15T11:31:51;30.55;;;16.98;;
33593;SDS011;19920;52.242;20.940;2023-02-15T11:36:50;30.80;;;17.40;;
33593;SDS011;19920;52.242;20.940;2023-02-15T11:39:18;32.28;;;17.77;;
33593;SDS011;19920;52.242;20.940;2023-02-15T11:41:50;33.58;;;17.48;;
33593;SDS011;19920;52.242;20.940;2023-02-15T11:47:00;31.25;;;16.55;;
33593;SDS011;19920;52.242;20.940;2023-02-15T11:49:31;34.35;;;19.05;;
33593;SDS011;19920;52.242;20.940;2023-02-15T11:51:59;31.92;;;17.73;;
33593;SDS011;19920;52.242;20.940;2023-02-15T11:54:29;33.40;;;19.23;;
33593;SDS011;19920;52.242;20.940;2023-02-15T11:57:10;34.47;;;19.42;;
33593;SDS011;19920;52.242;20.940;2023-02-15T11:59:37;31.00;;;18.27;;
33593;SDS011;19920;52.242;20.940;2023-02-15T12:02:15;33.33;;;18.25;;
33593;SDS011;19920;52.242;20.940;2023-02-15T12:04:45;38.75;;;19.13;;
33593;SDS011;19920;52.242;20.940;2023-02-15T12:07:18;32.72;;;18.27;;
33593;SDS011;19920;52.242;20.940;2023-02-15T12:12:45;38.17;;;19.02;;
33593;SDS011;19920;52.242;20.940;2023-02-15T12:15:11;38.97;;;20.52;;
33593;SDS011;19920;52.242;20.940;2023-02-15T12:17:47;37.47;;;18.85;;
33593;SDS011;19920;52.242;20.940;2023-02-15T12:22:50;40.72;;;21.73;;
33593;SDS011;19920;52.242;20.940;2023-02-15T12:25:35;36.58;;;20.20;;
33593;SDS011;19920;52.242;20.940;2023-02-15T12:28:31;40.92;;;20.73;;
33593;SDS011;19920;52.242;20.940;2023-02-15T12:30:59;46.10;;;22.27;;
33593;SDS011;19920;52.242;20.940;2023-02-15T12:36:10;38.28;;;21.02;;
33593;SDS011;19920;52.242;20.940;2023-02-15T12:38:42;35.92;;;19.63;;
33593;SDS011;19920;52.242;20.940;2023-02-15T12:41:27;36.20;;;19.30;;
33593;SDS011;19920;52.242;20.940;2023-02-15T12:44:35;37.00;;;20.83;;
33593;SDS011;19920;52.242;20.940;2023-02-15T12:49:32;35.90;;;19.75;;
33593;SDS011;19920;52.242;20.940;2023-02-15T12:52:00;40.08;;;20.00;;
33593;SDS011;19920;52.242;20.940;2023-02-15T12:54:35;40.33;;;20.03;;
33593;SDS011;19920;52.242;20.940;2023-02-15T12:57:13;45.88;;;20.90;;
33593;SDS011;19920;52.242;20.940;2023-02-15T12:59:49;38.10;;;20.58;;
33593;SDS011;19920;52.242;20.940;2023-02-15T13:02:21;41.00;;;21.15;;
33593;SDS011;19920;52.242;20.940;2023-02-15T13:05:10;41.53;;;22.13;;
33593;SDS011;19920;52.242;20.940;2023-02-15T13:10:37;43.25;;;22.05;;
33593;SDS011;19920;52.242;20.940;2023-02-15T13:13:29;39.97;;;21.95;;
33593;SDS011;19920;52.242;20.940;2023-02-15T13:15:58;46.78;;;23.23;;
33593;SDS011;19920;52.242;20.940;2023-02-15T13:18:35;41.08;;;22.10;;
33593;SDS011;19920;52.242;20.940;2023-02-15T13:21:09;41.17;;;21.85;;
33593;SDS011;19920;52.242;20.940;2023-02-15T13:26:26;40.55;;;22.38;;
33593;SDS011;19920;52.242;20.940;2023-02-15T13:28:56;42.95;;;23.38;;
33593;SDS011;19920;52.242;20.940;2023-02-15T13:31:26;46.13;;;23.00;;
33593;SDS011;19920;52.242;20.940;2023-02-15T13:34:01;50.38;;;24.67;;
33593;SDS011;19920;52.242;20.940;2023-02-15T13:41:47;49.53;;;25.00;;
33593;SDS011;19920;52.242;20.940;2023-02-15T13:50:27;43.45;;;22.42;;
33593;SDS011;19920;52.242;20.940;2023-02-15T13:55:51;41.42;;;22.42;;
33593;SDS011;19920;52.242;20.940;2023-02-15T14:11:44;46.05;;;23.67;;
33593;SDS011;19920;52.242;20.940;2023-02-15T14:17:29;47.53;;;24.17;;
33593;SDS011;19920;52.242;20.940;2023-02-15T14:23:02;48.08;;;24.48;;
33593;SDS011;19920;52.242;20.940;2023-02-15T14:31:44;51.83;;;26.52;;
33593;SDS011;19920;52.242;20.940;2023-02-15T14:34:23;48.22;;;25.08;;
33593;SDS011;19920;52.242;20.940;2023-02-15T14:36:52;51.33;;;25.63;;
33593;SDS011;19920;52.242;20.940;2023-02-15T14:45:22;49.72;;;25.60;;
33593;SDS011;19920;52.242;20.940;2023-02-15T14:48:25;53.63;;;26.52;;
33593;SDS011;19920;52.242;20.940;2023-02-15T14:50:56;52.72;;;26.88;;
33593;SDS011;19920;52.242;20.940;2023-02-15T14:53:34;51.83;;;26.95;;
33593;SDS011;19920;52.242;20.940;2023-02-15T15:01:14;50.85;;;23.65;;
33593;SDS011;19920;52.242;20.940;2023-02-15T15:03:45;46.55;;;25.17;;
33593;SDS011;19920;52.242;20.940;2023-02-15T15:09:24;44.13;;;23.05;;
33593;SDS011;19920;52.242;20.940;2023-02-15T15:11:53;51.33;;;25.20;;
33593;SDS011;19920;52.242;20.940;2023-02-15T15:16:58;48.50;;;25.05;;
33593;SDS011;19920;52.242;20.940;2023-02-15T15:22:16;54.28;;;27.27;;
33593;SDS011;19920;52.242;20.940;2023-02-15T15:24:50;55.10;;;27.95;;
33593;SDS011;19920;52.242;20.940;2023-02-15T15:27:40;59.40;;;28.45;;
33593;SDS011;19920;52.242;20.940;2023-02-15T15:35:50;56.65;;;29.30;;
33593;SDS011;19920;52.242;20.940;2023-02-15T15:49:47;38.30;;;20.20;;
33593;SDS011;19920;52.242;20.940;2023-02-15T15:52:17;42.25;;;21.60;;
33593;SDS011;19920;52.242;20.940;2023-02-15T15:54:46;41.17;;;20.58;;
33593;SDS011;19920;52.242;20.940;2023-02-15T15:57:28;41.00;;;20.23;;
33593;SDS011;19920;52.242;20.940;2023-02-15T16:00:00;46.35;;;21.05;;
33593;SDS011;19920;52.242;20.940;2023-02-15T16:02:26;45.40;;;21.70;;
33593;SDS011;19920;52.242;20.940;2023-02-15T16:04:52;44.80;;;22.27;;
33593;SDS011;19920;52.242;20.940;2023-02-15T16:10:00;45.90;;;22.92;;
33593;SDS011;19920;52.242;20.940;2023-02-15T16:12:29;49.65;;;23.92;;
33593;SDS011;19920;52.242;20.940;2023-02-15T16:14:57;48.53;;;23.98;;
33593;SDS011;19920;52.242;20.940;2023-02-15T16:17:26;50.20;;;23.77;;
33593;SDS011;19920;52.242;20.940;2023-02-15T16:20:03;48.83;;;23.85;;
33593;SDS011;19920;52.242;20.940;2023-02-15T16:22:33;50.08;;;23.48;;
33593;SDS011;19920;52.242;20.940;2023-02-15T16:25:07;50.13;;;23.58;;
33593;SDS011;19920;52.242;20.940;2023-02-15T16:28:05;51.17;;;22.35;;
33593;SDS011;19920;52.242;20.940;2023-02-15T16:30:33;43.33;;;21.02;;
33593;SDS011;19920;52.242;20.940;2023-02-15T16:35:35;43.47;;;21.40;;
33593;SDS011;19920;52.242;20.940;2023-02-15T16:38:03;40.05;;;21.42;;
33593;SDS011;19920;52.242;20.940;2023-02-15T16:40:46;41.70;;;22.60;;
33593;SDS011;19920;52.242;20.940;2023-02-15T16:43:23;43.80;;;21.20;;
33593;SDS011;19920;52.242;20.940;2023-02-15T16:45:51;41.60;;;22.08;;
33593;SDS011;19920;52.242;20.940;2023-02-15T16:48:24;44.63;;;21.88;;
33593;SDS011;19920;52.242;20.940;2023-02-15T16:50:53;41.00;;;20.80;;
33593;SDS011;19920;52.242;20.940;2023-02-15T16:53:23;40.47;;;21.58;;
33593;SDS011;19920;52.242;20.940;2023-02-15T16:55:59;39.45;;;20.73;;
33593;SDS011;19920;52.242;20.940;2023-02-15T17:01:00;38.58;;;20.17;;
33593;SDS011;19920;52.242;20.940;2023-02-15T17:03:27;42.10;;;21.17;;
33593;SDS011;19920;52.242;20.940;2023-02-15T17:05:55;39.40;;;21.13;;
33593;SDS011;19920;52.242;20.940;2023-02-15T17:08:29;40.65;;;20.05;;
33593;SDS011;19920;52.242;20.940;2023-02-15T17:13:36;43.97;;;20.90;;
33593;SDS011;19920;52.242;20.940;2023-02-15T17:18:32;41.20;;;21.70;;
33593;SDS011;19920;52.242;20.940;2023-02-15T17:21:10;42.30;;;20.45;;
33593;SDS011;19920;52.242;20.940;2023-02-15T17:23:45;41.33;;;20.92;;
33593;SDS011;19920;52.242;20.940;2023-02-15T17:28:45;41.35;;;21.90;;
33593;SDS011;19920;52.242;20.940;2023-02-15T17:31:14;43.58;;;22.52;;
33593;SDS011;19920;52.242;20.940;2023-02-15T17:33:42;41.53;;;22.17;;
33593;SDS011;19920;52.242;20.940;2023-02-15T17:36:11;42.00;;;21.63;;
33593;SDS011;19920;52.242;20.940;2023-02-15T17:41:23;44.08;;;22.60;;
33593;SDS011;19920;52.242;20.940;2023-02-15T17:43:48;48.67;;;23.38;;
33593;SDS011;19920;52.242;20.940;2023-02-15T17:46:14;57.50;;;32.10;;